Time;durP1;ratioP1;P1;durP2;ratioP2;P2;SDS_P1;SDS_P2;PMS_P1;PMS_P2;Temp;Humidity;BMP_temperature;BMP_pressure;BME280_temperature;BME280_humidity;BME280_pressure;Samples;Min_cycle;Max_cycle;Signal;HPM_P1;HPM_P2
2022/12/01 00:01:35;;;;;;;16.67;7.90;;;6.40;90.70;;;;;;6215024;23;20223;-79
2022/12/01 00:04:04;;;;;;;19.10;7.90;;;6.40;90.60;;;;;;6216077;23;20174;-78
2022/12/01 00:06:32;;;;;;;18.37;8.00;;;6.40;90.50;;;;;;6212668;23;20177;-79
2022/12/01 00:11:49;;;;;;;19.20;9.68;;;6.30;90.50;;;;;;6213097;23;20430;-80
2022/12/01 00:14:17;;;;;;;15.87;8.40;;;6.30;90.80;;;;;;6214065;23;20198;-77
2022/12/01 00:16:46;;;;;;;21.43;8.73;;;6.30;90.80;;;;;;6214146;23;20185;-77
2022/12/01 00:19:14;;;;;;;18.40;8.43;;;6.30;90.70;;;;;;6213364;23;20543;-79
2022/12/01 00:21:43;;;;;;;16.60;7.37;;;6.40;90.80;;;;;;6214154;23;20174;-78
2022/12/01 00:24:13;;;;;;;16.17;8.60;;;6.30;90.70;;;;;;6214660;23;20187;-78
2022/12/01 00:26:44;;;;;;;19.57;8.07;;;6.40;90.80;;;;;;6211520;23;20201;-79
2022/12/01 00:29:14;;;;;;;18.00;7.63;;;6.40;90.80;;;;;;6214797;23;20162;-79
2022/12/01 00:31:42;;;;;;;17.20;7.60;;;6.40;90.80;;;;;;6214548;23;20194;-78
2022/12/01 00:34:22;;;;;;;24.67;8.87;;;6.40;90.80;;;;;;6215337;23;20171;-80
2022/12/01 00:36:50;;;;;;;20.67;8.85;;;6.30;90.80;;;;;;6213274;23;20391;-77
2022/12/01 00:39:19;;;;;;;18.20;8.27;;;6.20;90.70;;;;;;6213376;23;20717;-79
2022/12/01 00:41:47;;;;;;;19.47;8.57;;;6.10;90.90;;;;;;6214106;23;20183;-78
2022/12/01 00:44:17;;;;;;;18.30;8.27;;;6.10;90.90;;;;;;6215364;23;20174;-79
2022/12/01 00:46:45;;;;;;;21.60;10.02;;;6.10;90.90;;;;;;6213142;23;20387;-79
2022/12/01 00:49:14;;;;;;;20.47;8.47;;;6.10;91.10;;;;;;6214815;23;20233;-79
2022/12/01 00:51:42;;;;;;;22.63;10.13;;;6.10;91.20;;;;;;6212842;23;20222;-78
2022/12/01 00:54:10;;;;;;;19.60;8.40;;;6.10;91.20;;;;;;6214075;23;20185;-78
2022/12/01 00:56:39;;;;;;;26.10;8.90;;;6.10;91.20;;;;;;6214084;23;20231;-77
2022/12/01 00:59:07;;;;;;;27.00;8.90;;;6.10;91.20;;;;;;6212115;23;20196;-79
2022/12/01 01:01:37;;;;;;;21.83;8.70;;;6.10;91.30;;;;;;6212478;23;20705;-79
2022/12/01 01:04:05;;;;;;;16.47;7.80;;;6.10;91.30;;;;;;6213548;23;20170;-79
2022/12/01 01:06:34;;;;;;;22.43;9.20;;;6.10;91.40;;;;;;6214483;23;20183;-79
2022/12/01 01:09:02;;;;;;;20.67;9.00;;;6.20;91.30;;;;;;6214980;23;20229;-79
2022/12/01 01:11:30;;;;;;;20.63;8.47;;;6.20;91.30;;;;;;6212766;23;20191;-79
2022/12/01 01:13:59;;;;;;;18.30;8.17;;;6.20;91.30;;;;;;6213848;23;20185;-79
2022/12/01 01:16:28;;;;;;;21.20;8.40;;;6.20;91.30;;;;;;6212268;23;20178;-77
2022/12/01 01:18:58;;;;;;;24.63;8.60;;;6.10;91.40;;;;;;6212867;23;20175;-77
2022/12/01 01:21:27;;;;;;;19.07;8.20;;;6.20;91.40;;;;;;6214671;23;20170;-79
2022/12/01 01:23:56;;;;;;;16.97;7.27;;;6.10;91.30;;;;;;6213943;23;20182;-79
2022/12/01 01:26:26;;;;;;;17.93;7.67;;;6.20;91.30;;;;;;6211144;23;20256;-79
2022/12/01 01:28:56;;;;;;;19.27;8.03;;;6.10;91.20;;;;;;6211082;23;20162;-79
2022/12/01 01:31:27;;;;;;;20.03;8.67;;;6.10;91.30;;;;;;6213303;23;20233;-80
2022/12/01 01:33:57;;;;;;;19.50;8.07;;;6.00;91.20;;;;;;6212389;23;20725;-80
2022/12/01 01:36:26;;;;;;;15.77;8.60;;;6.00;91.30;;;;;;6213471;23;20173;-77
2022/12/01 01:38:55;;;;;;;22.00;9.70;;;6.00;91.40;;;;;;6214455;23;20174;-77
2022/12/01 01:41:24;;;;;;;19.60;9.30;;;6.00;91.30;;;;;;6213469;23;20178;-78
2022/12/01 01:43:54;;;;;;;15.90;7.43;;;5.90;91.40;;;;;;6213773;23;20182;-80
2022/12/01 01:46:24;;;;;;;17.37;7.73;;;6.00;91.40;;;;;;6213180;23;20169;-80
2022/12/01 01:48:56;;;;;;;19.70;9.90;;;5.90;91.30;;;;;;6210278;23;20437;-78
2022/12/01 01:51:29;;;;;;;18.10;8.57;;;5.90;91.50;;;;;;6212599;23;20178;-80
2022/12/01 01:54:02;;;;;;;17.20;8.03;;;5.90;91.40;;;;;;6213769;23;20217;-78
2022/12/01 01:56:31;;;;;;;20.60;8.50;;;5.90;91.50;;;;;;6211831;23;20604;-78
2022/12/01 01:59:00;;;;;;;15.30;7.80;;;6.00;91.50;;;;;;6211881;23;20190;-77
2022/12/01 02:01:28;;;;;;;16.77;7.87;;;5.90;91.40;;;;;;6212798;23;20175;-77
2022/12/01 02:03:58;;;;;;;15.47;7.87;;;5.90;91.40;;;;;;6213406;23;20563;-79
2022/12/01 02:06:27;;;;;;;20.50;8.13;;;5.90;91.50;;;;;;6212367;23;20244;-78
2022/12/01 02:08:57;;;;;;;15.40;7.43;;;5.90;91.50;;;;;;6213740;23;20178;-79
2022/12/01 02:11:48;;;;;;;15.70;7.33;;;5.90;91.50;;;;;;6213896;23;20187;-79
2022/12/01 02:14:42;;;;;;;15.77;7.67;;;5.90;91.50;;;;;;6210204;23;20166;-81
2022/12/01 02:17:22;;;;;;;15.87;7.73;;;5.90;91.50;;;;;;6212736;23;20689;-78
2022/12/01 02:20:17;;;;;;;19.40;8.47;;;5.90;91.40;;;;;;6212946;23;20209;-77
2022/12/01 02:22:57;;;;;;;15.67;7.13;;;5.80;91.40;;;;;;6202773;23;20205;-77
2022/12/01 02:25:33;;;;;;;16.63;8.37;;;5.90;91.40;;;;;;6211478;23;20206;-79
2022/12/01 02:28:27;;;;;;;19.77;8.87;;;5.90;91.40;;;;;;6214312;23;20496;-79
2022/12/01 02:31:02;;;;;;;16.87;8.03;;;5.90;91.40;;;;;;6213342;23;20188;-78
2022/12/01 02:33:36;;;;;;;20.73;8.50;;;5.80;91.50;;;;;;6213483;23;20603;-79
2022/12/01 02:36:14;;;;;;;19.37;8.70;;;5.80;91.60;;;;;;6213205;23;20159;-76
2022/12/01 02:38:50;;;;;;;24.53;8.33;;;5.80;91.60;;;;;;6214638;23;20213;-78
2022/12/01 02:41:26;;;;;;;19.00;8.00;;;5.80;91.60;;;;;;6212928;23;20211;-76
2022/12/01 02:44:00;;;;;;;14.47;7.63;;;5.80;91.50;;;;;;6214435;23;20219;-81
2022/12/01 02:46:35;;;;;;;16.97;8.13;;;5.80;91.50;;;;;;6212362;23;20483;-77
2022/12/01 02:49:09;;;;;;;14.83;7.90;;;5.80;91.50;;;;;;6213605;23;20219;-81
2022/12/01 02:51:40;;;;;;;15.47;7.83;;;5.80;91.50;;;;;;6214310;23;20228;-79
2022/12/01 02:54:09;;;;;;;17.23;7.30;;;5.80;91.40;;;;;;6213621;23;20220;-78
2022/12/01 02:56:37;;;;;;;15.37;7.13;;;5.70;91.40;;;;;;6213330;23;20182;-77
2022/12/01 02:59:09;;;;;;;14.80;7.43;;;5.70;91.30;;;;;;6212325;23;20506;-77
2022/12/01 03:01:54;;;;;;;12.20;6.13;;;5.70;91.30;;;;;;6213343;23;20159;-80
2022/12/01 03:04:44;;;;;;;14.63;6.53;;;5.70;91.30;;;;;;6213410;23;20616;-76
2022/12/01 03:07:26;;;;;;;11.23;6.00;;;5.70;91.40;;;;;;6215194;23;20171;-79
2022/12/01 03:10:05;;;;;;;16.87;6.97;;;5.70;91.30;;;;;;6215062;23;20162;-79
2022/12/01 03:12:39;;;;;;;13.33;7.00;;;5.70;91.40;;;;;;6214539;23;20561;-80
2022/12/01 03:15:11;;;;;;;12.40;6.83;;;5.60;91.40;;;;;;6212487;23;20162;-76
2022/12/01 03:17:47;;;;;;;15.23;7.00;;;5.70;91.40;;;;;;6213958;23;20165;-78
2022/12/01 03:20:18;;;;;;;16.30;6.97;;;5.70;91.40;;;;;;6215826;23;20159;-76
2022/12/01 03:22:51;;;;;;;14.87;6.53;;;5.80;91.50;;;;;;6214823;23;20552;-77
2022/12/01 03:25:22;;;;;;;14.87;6.73;;;5.80;91.40;;;;;;6213848;23;20197;-76
2022/12/01 03:27:55;;;;;;;11.83;6.20;;;5.90;91.50;;;;;;6213016;23;20166;-76
2022/12/01 03:30:45;;;;;;;14.73;7.53;;;5.80;91.40;;;;;;6213134;23;20771;-78
2022/12/01 03:33:21;;;;;;;15.20;6.80;;;5.90;91.60;;;;;;6214569;23;20191;-77
2022/12/01 03:35:54;;;;;;;13.23;6.83;;;6.00;91.60;;;;;;6213504;23;20163;-75
2022/12/01 03:38:25;;;;;;;12.57;6.37;;;6.00;91.50;;;;;;6210241;23;20169;-76
2022/12/01 03:41:00;;;;;;;14.35;7.68;;;6.00;91.40;;;;;;6214340;23;20449;-77
2022/12/01 03:43:32;;;;;;;12.80;6.27;;;6.00;91.60;;;;;;6215679;23;20224;-77
2022/12/01 03:46:07;;;;;;;15.03;6.90;;;6.10;91.60;;;;;;6213620;23;20160;-77
2022/12/01 03:48:38;;;;;;;13.77;6.40;;;6.00;91.30;;;;;;6212907;23;20193;-77
2022/12/01 03:51:13;;;;;;;14.10;6.77;;;6.00;91.30;;;;;;6215008;23;20174;-77
2022/12/01 03:53:52;;;;;;;17.63;7.40;;;6.00;91.20;;;;;;6211115;23;20252;-77
2022/12/01 03:56:24;;;;;;;16.27;7.27;;;6.00;91.30;;;;;;6214478;23;20166;-79
2022/12/01 03:58:56;;;;;;;17.70;7.07;;;6.00;91.40;;;;;;6213289;23;20476;-79
2022/12/01 04:01:27;;;;;;;14.57;7.70;;;6.00;91.40;;;;;;6213698;23;20537;-79
2022/12/01 04:03:56;;;;;;;13.60;6.20;;;5.90;91.30;;;;;;6214600;23;20166;-79
2022/12/01 04:06:25;;;;;;;19.88;8.18;;;5.90;91.30;;;;;;6212844;23;20387;-79
2022/12/01 04:08:53;;;;;;;15.13;6.80;;;5.90;91.50;;;;;;6213404;23;20225;-79
2022/12/01 04:14:07;;;;;;;15.30;7.03;;;5.90;91.50;;;;;;6214514;23;20159;-79
2022/12/01 04:16:35;;;;;;;11.87;6.30;;;5.90;91.50;;;;;;6211254;23;20205;-79
2022/12/01 04:19:05;;;;;;;14.30;7.23;;;5.90;91.50;;;;;;6214591;23;20181;-79
2022/12/01 04:21:33;;;;;;;17.70;7.07;;;5.90;91.50;;;;;;6213689;23;20564;-80
2022/12/01 04:24:02;;;;;;;18.37;8.17;;;5.90;91.60;;;;;;6214593;23;20178;-79
2022/12/01 04:26:32;;;;;;;13.63;6.77;;;5.90;91.70;;;;;;6211995;23;20201;-79
2022/12/01 04:29:01;;;;;;;12.27;6.57;;;5.90;91.60;;;;;;6214713;23;20160;-78
2022/12/01 04:31:29;;;;;;;16.77;6.93;;;5.90;91.60;;;;;;6213631;23;20547;-80
2022/12/01 04:33:58;;;;;;;14.70;6.97;;;5.90;91.60;;;;;;6215138;23;20276;-81
2022/12/01 04:36:31;;;;;;;14.30;6.40;;;5.90;91.60;;;;;;6214451;23;20182;-79
2022/12/01 04:38:59;;;;;;;13.63;7.10;;;6.00;91.60;;;;;;6213981;23;20221;-79
2022/12/01 04:41:27;;;;;;;13.37;6.07;;;5.90;91.60;;;;;;6214419;23;20232;-78
2022/12/01 04:43:56;;;;;;;12.97;6.70;;;6.00;91.60;;;;;;6214512;23;20474;-79
2022/12/01 04:46:25;;;;;;;13.33;6.93;;;6.00;91.60;;;;;;6214199;23;20701;-79
2022/12/01 04:48:53;;;;;;;14.53;6.57;;;6.00;91.60;;;;;;6213504;23;20720;-78
2022/12/01 04:51:22;;;;;;;13.67;6.13;;;6.10;91.50;;;;;;6213946;23;20177;-79
2022/12/01 04:53:51;;;;;;;15.20;6.43;;;6.00;91.40;;;;;;6215356;23;20250;-78
2022/12/01 04:56:20;;;;;;;14.67;6.90;;;6.10;91.40;;;;;;6214425;23;20204;-78
2022/12/01 04:58:48;;;;;;;15.63;7.10;;;6.10;91.40;;;;;;6212838;23;20175;-78
2022/12/01 05:01:18;;;;;;;13.37;6.63;;;6.10;91.40;;;;;;6214397;23;20517;-79
2022/12/01 05:03:49;;;;;;;12.17;6.13;;;6.10;91.30;;;;;;6212345;23;20167;-79
2022/12/01 05:06:19;;;;;;;18.03;7.17;;;6.10;91.40;;;;;;6214702;23;20232;-79
2022/12/01 05:08:48;;;;;;;16.50;7.23;;;6.00;91.20;;;;;;6213395;23;20312;-78
2022/12/01 05:11:19;;;;;;;18.27;7.17;;;6.10;91.40;;;;;;6213038;23;20179;-81
2022/12/01 05:13:48;;;;;;;13.13;7.10;;;6.10;91.40;;;;;;6212418;23;20175;-78
2022/12/01 05:16:19;;;;;;;14.73;7.15;;;6.10;91.20;;;;;;6211651;23;20446;-79
2022/12/01 05:18:49;;;;;;;13.80;6.90;;;6.00;91.20;;;;;;6208985;23;20162;-80
2022/12/01 05:21:17;;;;;;;13.43;6.47;;;6.10;91.30;;;;;;6213809;23;20159;-79
2022/12/01 05:23:47;;;;;;;13.20;6.27;;;6.10;91.30;;;;;;6214234;23;20233;-78
2022/12/01 05:26:17;;;;;;;13.63;7.10;;;6.10;91.20;;;;;;6213604;23;20600;-79
2022/12/01 05:28:45;;;;;;;12.30;6.27;;;6.20;91.20;;;;;;6213560;23;20628;-78
2022/12/01 05:31:14;;;;;;;14.17;6.83;;;6.10;91.10;;;;;;6212434;23;20174;-80
2022/12/01 05:33:42;;;;;;;12.07;6.47;;;6.20;91.10;;;;;;6212044;23;20273;-81
2022/12/01 05:36:10;;;;;;;15.10;7.23;;;6.20;91.10;;;;;;6214055;23;20243;-78
2022/12/01 05:38:38;;;;;;;13.80;6.93;;;6.20;91.10;;;;;;6209473;23;20178;-77
2022/12/01 05:41:07;;;;;;;14.27;6.70;;;6.20;91.10;;;;;;6210053;23;20181;-78
2022/12/01 05:43:36;;;;;;;17.93;7.30;;;6.10;91.10;;;;;;6209719;23;20186;-80
2022/12/01 05:46:05;;;;;;;11.50;6.17;;;6.20;91.20;;;;;;6213227;23;20177;-79
2022/12/01 05:48:33;;;;;;;16.30;7.27;;;6.20;91.20;;;;;;6212917;23;20643;-80
2022/12/01 05:51:08;;;;;;;15.20;7.27;;;6.20;91.20;;;;;;6213035;23;20186;-79
2022/12/01 05:53:37;;;;;;;13.37;6.50;;;6.20;91.20;;;;;;6213725;23;20182;-76
2022/12/01 05:56:06;;;;;;;14.48;7.75;;;6.20;91.10;;;;;;6212639;23;20856;-76
2022/12/01 05:58:36;;;;;;;15.67;6.70;;;6.20;91.10;;;;;;6212610;23;20178;-77
2022/12/01 06:01:04;;;;;;;16.77;7.27;;;6.20;91.00;;;;;;6213541;23;20232;-78
2022/12/01 06:03:33;;;;;;;12.63;6.70;;;6.20;91.00;;;;;;6213376;23;20232;-77
2022/12/01 06:06:01;;;;;;;12.07;6.37;;;6.20;90.90;;;;;;6213961;23;20175;-76
2022/12/01 06:08:29;;;;;;;14.83;6.87;;;6.20;90.90;;;;;;6212356;23;20248;-78
2022/12/01 06:10:57;;;;;;;14.33;7.03;;;6.30;90.90;;;;;;6212909;23;20182;-78
2022/12/01 06:13:26;;;;;;;12.57;6.57;;;6.20;90.60;;;;;;6212710;23;20212;-76
2022/12/01 06:16:01;;;;;;;16.10;7.63;;;6.20;90.60;;;;;;6214466;23;20244;-76
2022/12/01 06:18:31;;;;;;;16.67;7.30;;;6.10;90.40;;;;;;6213735;23;20659;-77
2022/12/01 06:21:00;;;;;;;15.83;7.10;;;6.10;90.50;;;;;;6214311;23;20220;-79
2022/12/01 06:23:28;;;;;;;13.43;6.77;;;6.00;90.60;;;;;;6214585;23;20173;-76
2022/12/01 06:25:58;;;;;;;12.03;6.47;;;6.00;90.70;;;;;;6213199;23;20579;-77
2022/12/01 06:28:26;;;;;;;16.40;7.07;;;6.00;90.90;;;;;;6211474;23;20626;-77
2022/12/01 06:30:54;;;;;;;15.47;6.93;;;6.00;90.90;;;;;;6212415;23;20178;-76
2022/12/01 06:33:31;;;;;;;13.83;6.80;;;5.90;91.10;;;;;;6213009;23;20182;-76
2022/12/01 06:36:00;;;;;;;16.58;8.88;;;5.90;91.30;;;;;;6211915;23;20427;-78
2022/12/01 06:38:30;;;;;;;14.57;8.03;;;6.00;91.40;;;;;;6216657;23;20177;-76
2022/12/01 06:40:59;;;;;;;16.23;6.70;;;5.90;91.60;;;;;;6215822;23;20159;-78
2022/12/01 06:43:28;;;;;;;17.33;6.37;;;5.90;91.60;;;;;;6212634;23;20240;-77
2022/12/01 06:45:56;;;;;;;15.00;8.00;;;5.90;91.70;;;;;;6212521;23;20406;-77
2022/12/01 06:48:31;;;;;;;14.33;7.03;;;5.90;91.80;;;;;;6215258;23;20194;-79
2022/12/01 06:50:59;;;;;;;16.73;7.40;;;5.90;91.90;;;;;;6216722;23;20174;-82
2022/12/01 06:53:28;;;;;;;11.70;6.53;;;5.90;91.90;;;;;;6215473;23;20240;-79
2022/12/01 06:56:00;;;;;;;13.57;7.10;;;5.90;91.90;;;;;;6216693;23;20177;-78
2022/12/01 06:58:29;;;;;;;14.47;7.60;;;5.90;91.80;;;;;;6216386;23;20161;-78
2022/12/01 07:00:58;;;;;;;14.93;7.93;;;5.90;91.90;;;;;;6214929;23;20200;-77
2022/12/01 07:03:27;;;;;;;13.70;7.10;;;5.80;92.00;;;;;;6215537;23;20169;-78
2022/12/01 07:05:58;;;;;;;16.07;7.60;;;5.80;92.00;;;;;;6216669;23;20178;-78
2022/12/01 07:08:27;;;;;;;14.93;7.43;;;5.90;92.00;;;;;;6216127;23;20163;-77
2022/12/01 07:10:59;;;;;;;15.60;7.47;;;5.90;92.00;;;;;;6216081;23;20228;-78
2022/12/01 07:13:27;;;;;;;15.53;7.87;;;5.90;92.10;;;;;;6214693;23;20201;-76
2022/12/01 07:16:01;;;;;;;13.67;6.90;;;5.80;92.10;;;;;;6215318;23;20158;-79
2022/12/01 07:18:31;;;;;;;13.20;5.87;;;5.80;92.10;;;;;;6212795;23;20181;-81
2022/12/01 07:21:02;;;;;;;16.07;7.27;;;5.70;92.00;;;;;;6213895;23;20233;-77
2022/12/01 07:23:31;;;;;;;11.70;6.47;;;5.70;92.10;;;;;;6215837;23;20156;-79
2022/12/01 07:26:00;;;;;;;13.10;6.97;;;5.70;92.20;;;;;;6214311;23;20205;-77
2022/12/01 07:28:29;;;;;;;12.20;6.67;;;5.60;92.50;;;;;;6214700;23;20256;-78
2022/12/01 07:31:02;;;;;;;15.00;6.77;;;5.60;92.50;;;;;;6214255;23;20173;-77
2022/12/01 07:33:34;;;;;;;13.03;6.60;;;5.70;92.50;;;;;;6212639;23;20209;-77
2022/12/01 07:36:04;;;;;;;15.53;8.43;;;5.70;92.60;;;;;;6214947;23;20387;-77
2022/12/01 07:38:33;;;;;;;13.97;7.20;;;5.70;92.60;;;;;;6214407;23;20162;-78
2022/12/01 07:41:02;;;;;;;15.80;7.77;;;5.70;92.90;;;;;;6212480;23;20175;-78
2022/12/01 07:43:31;;;;;;;13.87;7.07;;;5.70;92.80;;;;;;6215727;23;20175;-79
2022/12/01 07:46:05;;;;;;;11.77;5.87;;;5.80;93.00;;;;;;6212047;23;20176;-77
2022/12/01 07:48:33;;;;;;;15.27;6.13;;;5.70;92.90;;;;;;6214499;23;20600;-76
2022/12/01 07:51:03;;;;;;;12.33;6.57;;;5.80;92.80;;;;;;6216257;23;20504;-78
2022/12/01 07:53:32;;;;;;;12.87;6.70;;;5.70;92.80;;;;;;6212637;23;20243;-79
2022/12/01 07:56:01;;;;;;;11.00;6.23;;;5.70;92.80;;;;;;6215781;23;20506;-76
2022/12/01 07:58:35;;;;;;;13.40;6.70;;;5.70;92.60;;;;;;6215183;23;20568;-76
2022/12/01 08:01:08;;;;;;;12.90;6.53;;;5.70;92.70;;;;;;6215873;23;20229;-77
2022/12/01 08:03:36;;;;;;;14.27;7.22;;;5.70;92.60;;;;;;6213629;23;20383;-76
2022/12/01 08:06:07;;;;;;;11.63;6.77;;;5.60;92.70;;;;;;6215531;23;20177;-77
2022/12/01 08:08:37;;;;;;;11.40;6.87;;;5.70;92.80;;;;;;6215103;23;20197;-77
2022/12/01 08:11:07;;;;;;;11.50;6.03;;;5.60;92.80;;;;;;6212236;23;20181;-77
2022/12/01 08:13:36;;;;;;;11.97;5.77;;;5.60;92.80;;;;;;6214895;23;20167;-81
2022/12/01 08:16:04;;;;;;;12.27;5.97;;;5.60;92.70;;;;;;6214678;23;20319;-77
2022/12/01 08:18:37;;;;;;;12.43;6.63;;;5.50;92.80;;;;;;6212087;23;20173;-76
2022/12/01 08:21:09;;;;;;;11.10;5.70;;;5.60;92.80;;;;;;6214052;23;20176;-75
2022/12/01 08:23:37;;;;;;;17.73;7.50;;;5.60;93.00;;;;;;6215109;23;20159;-76
2022/12/01 08:26:08;;;;;;;12.03;6.07;;;5.50;92.90;;;;;;6215332;23;20201;-77
2022/12/01 08:28:36;;;;;;;12.33;6.13;;;5.50;92.90;;;;;;6215512;23;20163;-76
2022/12/01 08:31:09;;;;;;;11.23;6.10;;;5.50;93.00;;;;;;6208697;23;20184;-76
2022/12/01 08:33:38;;;;;;;12.63;6.10;;;5.50;93.20;;;;;;6210704;23;20156;-75
2022/12/01 08:36:08;;;;;;;12.33;6.13;;;5.50;93.30;;;;;;6213250;23;20654;-77
2022/12/01 08:38:37;;;;;;;13.67;6.50;;;5.50;93.20;;;;;;6213625;23;20221;-76
2022/12/01 08:41:07;;;;;;;12.37;6.40;;;5.40;93.30;;;;;;6213363;23;20237;-76
2022/12/01 08:43:38;;;;;;;13.87;5.57;;;5.40;93.30;;;;;;6212329;23;20578;-76
2022/12/01 08:46:27;;;;;;;12.83;7.03;;;5.40;93.30;;;;;;6211439;23;20214;-76
2022/12/01 08:48:57;;;;;;;10.47;6.13;;;5.40;93.30;;;;;;6213115;23;20237;-77
2022/12/01 08:51:27;;;;;;;14.00;7.68;;;5.40;93.30;;;;;;6212219;23;20383;-75
2022/12/01 08:53:57;;;;;;;11.37;6.20;;;5.40;93.40;;;;;;6211530;23;20217;-77
2022/12/01 08:56:27;;;;;;;12.40;6.80;;;5.40;93.50;;;;;;6213122;23;20201;-76
2022/12/01 08:58:57;;;;;;;12.40;6.57;;;5.30;93.50;;;;;;6211895;23;20205;-76
2022/12/01 09:01:25;;;;;;;12.87;7.43;;;5.40;93.40;;;;;;6213213;23;20177;-76
2022/12/01 09:04:06;;;;;;;11.13;5.77;;;5.40;93.40;;;;;;6213664;23;20182;-78
2022/12/01 09:06:40;;;;;;;13.27;6.33;;;5.30;93.30;;;;;;6213460;23;20158;-78
2022/12/01 09:09:11;;;;;;;11.23;6.17;;;5.30;93.50;;;;;;6209328;23;20685;-76
2022/12/01 09:11:40;;;;;;;15.30;6.93;;;5.30;93.50;;;;;;6212535;23;20594;-82
2022/12/01 09:14:13;;;;;;;12.87;6.33;;;5.30;93.40;;;;;;6212238;23;20182;-76
2022/12/01 09:16:42;;;;;;;15.37;7.90;;;5.40;93.40;;;;;;6212196;23;20379;-78
2022/12/01 09:19:11;;;;;;;12.97;6.37;;;5.30;93.60;;;;;;6213127;23;20490;-76
2022/12/01 09:21:44;;;;;;;12.17;6.43;;;5.40;93.70;;;;;;6213246;23;20180;-76
2022/12/01 09:24:14;;;;;;;9.73;4.97;;;5.30;93.50;;;;;;6211996;23;20160;-76
2022/12/01 09:26:43;;;;;;;13.20;6.27;;;5.30;93.80;;;;;;6210934;23;20192;-79
2022/12/01 09:29:13;;;;;;;12.53;6.70;;;5.30;93.60;;;;;;6212117;23;20243;-76
2022/12/01 09:31:42;;;;;;;11.07;5.30;;;5.30;93.70;;;;;;6214670;23;20168;-76
2022/12/01 09:34:14;;;;;;;12.57;6.23;;;5.40;93.60;;;;;;6211358;23;20196;-77
2022/12/01 09:36:43;;;;;;;13.60;6.47;;;5.30;93.60;;;;;;6212918;23;20162;-76
2022/12/01 09:39:14;;;;;;;10.27;5.43;;;5.20;93.70;;;;;;6210617;23;20178;-76
2022/12/01 09:41:46;;;;;;;12.65;6.90;;;5.30;93.80;;;;;;6210760;23;20384;-77
2022/12/01 09:44:19;;;;;;;12.30;6.43;;;5.30;94.00;;;;;;6161695;23;20173;-77
2022/12/01 09:46:52;;;;;;;10.47;5.70;;;5.30;94.00;;;;;;6212415;23;20164;-76
2022/12/01 09:49:26;;;;;;;10.70;6.70;;;5.30;93.80;;;;;;6212790;23;20168;-77
2022/12/01 09:51:56;;;;;;;10.43;5.17;;;5.40;93.90;;;;;;6215605;23;20231;-76
2022/12/01 09:54:24;;;;;;;12.23;7.10;;;5.40;93.80;;;;;;6211131;23;20765;-76
2022/12/01 09:56:54;;;;;;;10.83;5.80;;;5.40;94.00;;;;;;6211117;23;20232;-75
2022/12/01 09:59:26;;;;;;;9.90;5.40;;;5.40;93.90;;;;;;6212103;23;20225;-76
2022/12/01 10:01:58;;;;;;;12.23;5.33;;;5.40;93.90;;;;;;6214955;23;20156;-75
2022/12/01 10:04:33;;;;;;;12.00;6.30;;;5.40;94.00;;;;;;6213754;23;20165;-76
2022/12/01 10:07:06;;;;;;;11.73;5.67;;;5.50;94.10;;;;;;6214092;23;20160;-77
2022/12/01 10:09:41;;;;;;;12.63;5.97;;;5.40;94.20;;;;;;6212387;23;20226;-76
2022/12/01 10:12:14;;;;;;;9.47;5.40;;;5.50;94.20;;;;;;6214471;23;20165;-76
2022/12/01 10:14:45;;;;;;;8.97;5.20;;;5.50;94.10;;;;;;6216565;23;20188;-78
2022/12/01 10:17:21;;;;;;;10.20;5.77;;;5.50;94.00;;;;;;6216198;23;20204;-76
2022/12/01 10:19:57;;;;;;;11.90;5.50;;;5.50;93.80;;;;;;6212549;23;20162;-76
2022/12/01 10:22:50;;;;;;;12.43;5.90;;;5.50;93.90;;;;;;6212851;23;20210;-78
2022/12/01 10:25:23;;;;;;;10.97;5.10;;;5.60;93.90;;;;;;6213757;23;20205;-78
2022/12/01 10:28:14;;;;;;;8.97;4.73;;;5.60;94.00;;;;;;6214605;23;20172;-80
2022/12/01 10:30:50;;;;;;;8.67;5.87;;;5.60;93.90;;;;;;6213492;23;20694;-78
2022/12/01 10:33:24;;;;;;;15.05;7.07;;;5.60;93.80;;;;;;6215102;23;20379;-77
2022/12/01 10:35:52;;;;;;;9.70;4.93;;;5.60;93.90;;;;;;6215836;23;20232;-77
2022/12/01 10:38:26;;;;;;;10.40;5.50;;;5.60;93.90;;;;;;6216434;23;20244;-79
2022/12/01 10:40:57;;;;;;;10.40;5.80;;;5.70;94.00;;;;;;6215333;23;20162;-77
2022/12/01 10:43:32;;;;;;;9.87;5.50;;;5.70;94.00;;;;;;6216135;23;20163;-77
2022/12/01 10:46:15;;;;;;;11.27;6.23;;;5.70;93.90;;;;;;6215946;23;20159;-78
2022/12/01 10:48:54;;;;;;;8.80;5.43;;;5.70;94.00;;;;;;6215511;23;20164;-77
2022/12/01 10:51:23;;;;;;;10.23;5.20;;;5.60;93.80;;;;;;6214113;23;20600;-77
2022/12/01 10:53:59;;;;;;;11.83;5.63;;;5.60;93.90;;;;;;6215025;23;20194;-78
2022/12/01 10:56:28;;;;;;;10.40;6.03;;;5.60;94.00;;;;;;6214556;23;20176;-78
2022/12/01 10:59:00;;;;;;;11.23;5.23;;;5.60;93.80;;;;;;6213662;23;20225;-77
2022/12/01 11:01:30;;;;;;;10.20;5.73;;;5.60;94.00;;;;;;6214599;23;20165;-77
2022/12/01 11:04:07;;;;;;;10.77;6.00;;;5.60;94.00;;;;;;6214948;23;20608;-77
2022/12/01 11:06:37;;;;;;;12.50;5.93;;;5.60;94.10;;;;;;6216309;23;20157;-79
2022/12/01 11:09:18;;;;;;;13.17;5.40;;;5.60;93.80;;;;;;6215435;23;20228;-76
2022/12/01 11:11:57;;;;;;;9.63;5.68;;;5.50;93.80;;;;;;6216053;23;20863;-76
2022/12/01 11:14:33;;;;;;;9.90;5.20;;;5.50;94.00;;;;;;6215844;23;20224;-76
2022/12/01 11:17:26;;;;;;;12.70;6.57;;;5.60;94.20;;;;;;6214509;23;20511;-77
2022/12/01 11:19:54;;;;;;;9.50;4.87;;;5.60;94.20;;;;;;6213780;23;20165;-77
2022/12/01 11:22:26;;;;;;;9.93;4.63;;;5.50;93.90;;;;;;6216219;23;20454;-75
2022/12/01 11:25:04;;;;;;;10.53;5.67;;;5.60;94.00;;;;;;6215282;23;20272;-78
2022/12/01 11:27:35;;;;;;;8.93;5.17;;;5.60;94.10;;;;;;6216266;23;20162;-74
2022/12/01 11:30:07;;;;;;;9.57;5.17;;;5.60;94.00;;;;;;6214363;23;20162;-77
2022/12/01 11:32:39;;;;;;;11.33;5.90;;;5.60;94.00;;;;;;6214462;23;20219;-74
2022/12/01 11:35:18;;;;;;;10.30;5.40;;;5.60;94.00;;;;;;6214952;23;20165;-75
2022/12/01 11:37:52;;;;;;;11.35;5.70;;;5.60;94.00;;;;;;6214657;23;20406;-75
2022/12/01 11:40:50;;;;;;;12.43;5.30;;;5.60;94.10;;;;;;6212617;23;20181;-76
2022/12/01 11:43:27;;;;;;;8.10;4.67;;;5.60;94.00;;;;;;6215357;23;20524;-77
2022/12/01 11:45:58;;;;;;;9.77;4.67;;;5.60;94.00;;;;;;6216496;23;20165;-75
2022/12/01 11:48:29;;;;;;;11.70;5.33;;;5.60;94.00;;;;;;6212969;23;20158;-75
2022/12/01 11:51:04;;;;;;;12.73;6.13;;;5.60;94.00;;;;;;6213903;23;20748;-77
2022/12/01 11:53:35;;;;;;;11.37;5.67;;;5.60;94.20;;;;;;6215686;23;20455;-76
2022/12/01 11:56:22;;;;;;;9.83;5.23;;;5.70;94.30;;;;;;6216699;23;20179;-76
2022/12/01 11:59:03;;;;;;;12.13;5.82;;;5.70;94.20;;;;;;6214362;23;20853;-76
2022/12/01 12:01:40;;;;;;;12.77;5.80;;;5.60;94.20;;;;;;6216011;23;20159;-75
2022/12/01 12:04:22;;;;;;;11.30;6.07;;;5.70;94.20;;;;;;6215166;23;20162;-77
2022/12/01 12:07:02;;;;;;;9.50;5.23;;;5.70;94.10;;;;;;6213782;23;20595;-77
2022/12/01 12:09:46;;;;;;;12.80;5.40;;;5.70;94.10;;;;;;6213272;23;20624;-77
2022/12/01 12:12:28;;;;;;;9.07;5.40;;;5.60;94.00;;;;;;6215430;23;20181;-77
2022/12/01 12:15:05;;;;;;;11.90;5.40;;;5.60;94.40;;;;;;6213779;23;20162;-76
2022/12/01 12:18:02;;;;;;;12.87;5.93;;;5.70;94.60;;;;;;6212614;23;20225;-78
2022/12/01 12:20:49;;;;;;;13.13;6.23;;;5.70;94.60;;;;;;6206879;23;20253;-76
2022/12/01 12:23:37;;;;;;;11.17;5.63;;;5.80;94.70;;;;;;6214203;23;20221;-79
2022/12/01 12:26:12;;;;;;;13.07;6.13;;;5.90;94.60;;;;;;6211784;23;20197;-78
2022/12/01 12:29:00;;;;;;;13.67;6.13;;;6.00;94.20;;;;;;6212662;23;20213;-75
2022/12/01 12:31:35;;;;;;;11.83;5.77;;;6.00;94.30;;;;;;6137803;23;20177;-77
2022/12/01 12:34:17;;;;;;;13.23;6.73;;;6.10;94.00;;;;;;6214825;23;20161;-76
2022/12/01 12:36:54;;;;;;;12.97;6.17;;;6.10;93.70;;;;;;6213854;23;20227;-76
2022/12/01 12:39:40;;;;;;;12.33;6.93;;;6.20;93.60;;;;;;6213469;23;20161;-76
2022/12/01 12:42:19;;;;;;;14.77;7.47;;;6.20;93.70;;;;;;6215660;23;20209;-76
2022/12/01 12:45:00;;;;;;;12.30;7.10;;;6.20;93.50;;;;;;6215577;23;20170;-79
2022/12/01 12:47:46;;;;;;;14.17;7.20;;;6.30;93.60;;;;;;6213201;23;20189;-77
2022/12/01 12:50:27;;;;;;;14.73;7.10;;;6.30;93.90;;;;;;6212856;23;20182;-78
2022/12/01 12:52:59;;;;;;;13.90;6.90;;;6.30;94.10;;;;;;6214361;23;20225;-79
2022/12/01 12:55:39;;;;;;;12.07;6.67;;;6.40;94.00;;;;;;6215334;23;20216;-78
2022/12/01 12:58:16;;;;;;;9.70;5.73;;;6.50;93.90;;;;;;6213400;23;20155;-78
2022/12/01 13:00:50;;;;;;;13.67;6.60;;;6.50;94.00;;;;;;6214330;23;20163;-76
2022/12/01 13:03:26;;;;;;;11.87;5.87;;;6.50;93.80;;;;;;6214831;23;20158;-79
2022/12/01 13:06:06;;;;;;;13.53;7.00;;;6.50;93.80;;;;;;6214564;23;20273;-77
2022/12/01 13:08:39;;;;;;;15.20;7.00;;;6.60;93.70;;;;;;6214677;23;20490;-76
2022/12/01 13:11:20;;;;;;;13.50;6.27;;;6.50;93.60;;;;;;6214541;23;20596;-78
2022/12/01 13:13:56;;;;;;;13.93;7.10;;;6.50;93.80;;;;;;6214291;23;20216;-77
2022/12/01 13:16:30;;;;;;;20.30;9.17;;;6.60;93.80;;;;;;6214466;23;20175;-77
2022/12/01 13:19:04;;;;;;;19.63;9.63;;;6.60;93.70;;;;;;6214381;23;20162;-77
2022/12/01 13:21:39;;;;;;;15.67;7.70;;;6.60;93.70;;;;;;6214380;23;20158;-77